createdAt,value
2019-05-05T00:02:11.416Z,38.75
2019-05-05T00:04:45.512Z,45.25
2019-05-05T00:07:18.619Z,50.25
2019-05-05T00:09:51.461Z,37.00
2019-05-05T00:12:25.177Z,22.25
2019-05-05T00:14:58.082Z,36.50
2019-05-05T00:17:31.165Z,31.50
2019-05-05T00:20:05.317Z,18.25
2019-05-05T00:22:38.468Z,6.75
2019-05-05T00:25:14.329Z,7.25
2019-05-05T00:27:47.646Z,9.25
2019-05-05T00:30:20.559Z,8.00
2019-05-05T00:32:54.868Z,8.75
2019-05-05T00:35:27.867Z,5.75
2019-05-05T00:38:00.970Z,7.50
2019-05-05T00:40:35.281Z,8.00
2019-05-05T00:43:08.224Z,11.75
2019-05-05T00:45:41.469Z,9.25
2019-05-05T00:48:15.292Z,25.75
2019-05-05T00:50:48.299Z,45.25
2019-05-05T00:53:21.242Z,34.75
2019-05-05T00:55:54.707Z,19.75
2019-05-05T00:58:27.592Z,14.25
2019-05-05T01:01:00.414Z,7.50
2019-05-05T01:03:34.767Z,7.00
2019-05-05T01:06:07.738Z,6.50
2019-05-05T01:08:40.754Z,5.25
2019-05-05T01:11:14.464Z,3.50
2019-05-05T01:13:47.430Z,3.25
2019-05-05T01:16:20.794Z,2.00
2019-05-05T01:18:55.388Z,2.75
2019-05-05T01:21:28.315Z,3.00
2019-05-05T01:24:01.212Z,1.00
2019-05-05T01:26:35.387Z,3.25
2019-05-05T01:29:08.560Z,3.25
2019-05-05T01:31:41.560Z,3.50
2019-05-05T01:34:15.116Z,23.00
2019-05-05T01:36:48.186Z,22.00
2019-05-05T01:39:21.097Z,12.50
2019-05-05T01:41:54.343Z,12.25
2019-05-05T01:44:27.239Z,14.00
2019-05-05T01:47:00.079Z,6.00
2019-05-05T01:49:34.510Z,4.00
2019-05-05T01:52:07.614Z,4.25
2019-05-05T01:54:40.440Z,4.00
2019-05-05T01:57:14.772Z,2.75
2019-05-05T01:59:48.135Z,5.25
2019-05-05T02:02:21.052Z,3.25
2019-05-05T02:04:55.367Z,3.50
2019-05-05T02:07:28.598Z,3.75
2019-05-05T02:10:01.766Z,5.50
2019-05-05T02:12:35.317Z,5.00
2019-05-05T02:15:08.960Z,4.00
2019-05-05T02:17:41.916Z,3.75
2019-05-05T02:20:41.310Z,3.50
2019-05-05T02:23:15.162Z,3.00
2019-05-05T02:25:48.387Z,4.25
2019-05-05T02:28:21.301Z,4.50
2019-05-05T02:30:55.008Z,7.00
2019-05-05T02:33:28.245Z,5.50
2019-05-05T02:36:01.205Z,5.00
2019-05-05T02:38:35.405Z,4.00
2019-05-05T02:41:08.857Z,8.00
2019-05-05T02:43:44.811Z,6.50
2019-05-05T02:46:16.954Z,6.00
2019-05-05T02:48:55.125Z,4.50
2019-05-05T02:51:28.539Z,6.00
2019-05-05T02:54:04.408Z,5.00
2019-05-05T02:56:39.694Z,6.75
2019-05-05T02:59:15.074Z,5.00
2019-05-05T03:01:48.044Z,6.00
2019-05-05T03:04:24.312Z,2.50
2019-05-05T03:06:58.236Z,4.00
2019-05-05T03:09:32.170Z,4.75
2019-05-05T03:12:05.378Z,7.00
2019-05-05T03:14:40.507Z,7.50
2019-05-05T03:17:14.433Z,5.00
2019-05-05T03:19:49.468Z,6.75
2019-05-05T03:22:24.540Z,6.25
2019-05-05T03:24:58.132Z,7.00
2019-05-05T03:27:31.463Z,5.00
2019-05-05T03:30:05.300Z,6.00
2019-05-05T03:32:38.260Z,6.50
2019-05-05T03:35:13.561Z,6.00
2019-05-05T03:37:46.726Z,7.00
2019-05-05T03:40:19.883Z,6.00
2019-05-05T03:42:53.581Z,5.75
2019-05-05T03:45:26.646Z,7.25
2019-05-05T03:47:59.720Z,7.00
2019-05-05T03:50:34.094Z,7.75
2019-05-05T03:53:07.399Z,7.50
2019-05-05T03:55:40.316Z,8.00
2019-05-05T03:58:14.643Z,7.50
2019-05-05T04:01:26.995Z,7.75
2019-05-05T04:04:00.126Z,6.25
2019-05-05T04:06:33.980Z,8.00
2019-05-05T04:09:07.415Z,7.75
2019-05-05T04:11:40.712Z,7.00
2019-05-05T04:14:14.837Z,7.25
2019-05-05T04:16:47.831Z,6.50
2019-05-05T04:19:20.783Z,6.25
2019-05-05T04:21:53.753Z,6.25
2019-05-05T04:24:26.593Z,7.00
2019-05-05T04:26:59.609Z,7.75
2019-05-05T04:29:34.453Z,8.25
2019-05-05T04:32:07.272Z,8.50
2019-05-05T04:34:40.513Z,7.00
2019-05-05T04:37:14.943Z,8.75
2019-05-05T04:39:48.393Z,7.50
2019-05-05T04:42:21.392Z,6.75
2019-05-05T04:44:54.276Z,8.00
2019-05-05T04:47:27.801Z,11.50
2019-05-05T04:50:00.793Z,9.50
2019-05-05T04:52:34.416Z,7.75
2019-05-05T04:55:07.508Z,8.25
2019-05-05T04:57:40.418Z,8.75
2019-05-05T05:00:13.920Z,8.75
2019-05-05T05:02:46.866Z,8.50
2019-05-05T05:05:19.908Z,6.50
2019-05-05T05:07:54.631Z,9.50
2019-05-05T05:10:28.094Z,9.75
2019-05-05T05:13:01.446Z,8.50
2019-05-05T05:15:34.332Z,8.00
2019-05-05T05:18:07.672Z,7.00
2019-05-05T05:20:40.697Z,8.00
2019-05-05T05:23:14.286Z,5.00
2019-05-05T05:25:47.221Z,7.75
2019-05-05T05:28:20.594Z,6.50
2019-05-05T05:30:54.556Z,5.50
2019-05-05T05:33:27.845Z,4.50
2019-05-05T05:36:00.768Z,5.75
2019-05-05T05:38:34.636Z,5.75
2019-05-05T05:41:07.760Z,4.25
2019-05-05T05:43:40.714Z,6.75
2019-05-05T05:46:13.702Z,4.25
2019-05-05T05:48:46.603Z,5.00
2019-05-05T05:51:19.629Z,5.75
2019-05-05T05:53:54.254Z,4.25
2019-05-05T05:56:27.418Z,4.50
2019-05-05T05:59:00.388Z,5.75
2019-05-05T06:01:34.600Z,5.25
2019-05-05T06:04:07.475Z,5.00
2019-05-05T06:06:40.437Z,7.00
2019-05-05T06:09:14.824Z,5.00
2019-05-05T06:11:47.952Z,5.00
2019-05-05T06:14:21.340Z,5.50
2019-05-05T06:16:54.375Z,6.50
2019-05-05T06:19:27.366Z,8.00
2019-05-05T06:22:00.319Z,8.00
2019-05-05T06:24:34.549Z,8.25
2019-05-05T06:27:07.703Z,8.25
2019-05-05T06:29:40.744Z,6.00
2019-05-05T06:32:14.604Z,5.25
2019-05-05T06:34:47.674Z,5.00
2019-05-05T06:37:20.771Z,3.00
2019-05-05T06:39:54.447Z,2.60
2019-05-05T06:42:27.520Z,3.40
2019-05-05T06:45:00.419Z,5.60
2019-05-05T06:47:33.984Z,3.80
2019-05-05T06:50:07.431Z,3.60
2019-05-05T06:52:44.232Z,6.80
2019-05-05T06:55:15.556Z,6.40
2019-05-05T06:57:48.496Z,3.80
2019-05-05T07:00:21.456Z,5.00
2019-05-05T07:02:54.565Z,5.40
2019-05-05T07:05:28.189Z,5.00
2019-05-05T07:08:01.097Z,5.40
2019-05-05T07:10:34.779Z,5.60
2019-05-05T07:13:07.873Z,6.00
2019-05-05T07:15:40.863Z,5.60
2019-05-05T07:18:14.388Z,6.40
2019-05-05T07:20:47.293Z,6.80
2019-05-05T07:23:20.221Z,8.00
2019-05-05T07:25:54.920Z,7.20
2019-05-05T07:28:28.345Z,6.20
2019-05-05T07:31:01.667Z,7.40
2019-05-05T07:33:34.875Z,6.20
2019-05-05T07:36:07.842Z,5.00
2019-05-05T07:38:41.122Z,6.80
2019-05-05T07:41:14.179Z,5.40
2019-05-05T07:43:47.139Z,6.00
2019-05-05T07:46:20.099Z,10.20
2019-05-05T07:48:54.465Z,6.00
2019-05-05T07:51:27.644Z,7.00
2019-05-05T07:54:00.906Z,8.00
2019-05-05T07:56:34.510Z,5.80
2019-05-05T07:59:07.535Z,6.80
2019-05-05T08:01:43.459Z,5.80
2019-05-05T08:04:15.922Z,7.00
2019-05-05T08:06:48.985Z,7.20
2019-05-05T08:09:24.647Z,7.80
2019-05-05T08:11:57.108Z,5.20
2019-05-05T08:14:30.047Z,6.25
2019-05-05T08:17:04.132Z,6.00
2019-05-05T08:19:37.650Z,4.40
2019-05-05T08:22:10.592Z,5.60
2019-05-05T08:24:44.025Z,7.20
2019-05-05T08:27:16.971Z,6.20
2019-05-05T08:29:50.209Z,5.60
2019-05-05T08:32:23.774Z,6.60
2019-05-05T08:35:00.831Z,9.00
2019-05-05T08:37:31.847Z,5.60
2019-05-05T08:40:05.789Z,6.60
2019-05-05T08:42:38.769Z,3.60
2019-05-05T08:45:13.835Z,9.80
2019-05-05T08:47:47.158Z,6.40
2019-05-05T08:50:20.058Z,7.00
2019-05-05T08:52:53.750Z,7.00
2019-05-05T08:55:28.519Z,6.40
2019-05-05T08:58:01.643Z,6.00
2019-05-05T09:00:34.660Z,7.60
2019-05-05T09:03:07.666Z,7.40
2019-05-05T09:05:40.680Z,7.80
2019-05-05T09:08:14.055Z,6.40
2019-05-05T09:10:47.062Z,9.00
2019-05-05T09:13:20.013Z,8.20
2019-05-05T09:15:54.401Z,5.60
2019-05-05T09:18:27.432Z,6.20
2019-05-05T09:21:00.392Z,11.00
2019-05-05T09:23:34.673Z,6.20
2019-05-05T09:26:07.682Z,4.40
2019-05-05T09:28:40.669Z,6.40
2019-05-05T09:31:14.621Z,5.40
2019-05-05T09:33:47.832Z,6.80
2019-05-05T09:36:20.832Z,4.60
2019-05-05T09:38:54.149Z,7.60
2019-05-05T09:41:27.092Z,7.80
2019-05-05T09:44:00.448Z,5.80
2019-05-05T09:46:34.056Z,7.60
2019-05-05T09:49:07.006Z,6.00
2019-05-05T09:51:40.076Z,10.40
2019-05-05T09:54:16.721Z,8.20
2019-05-05T09:56:48.030Z,7.00
2019-05-05T09:59:21.056Z,11.60
2019-05-05T10:01:54.142Z,9.20
2019-05-05T10:04:27.173Z,8.00
2019-05-05T10:07:00.037Z,9.40
2019-05-05T10:09:34.520Z,6.80
2019-05-05T10:12:07.728Z,5.80
2019-05-05T10:14:40.758Z,9.00
2019-05-05T10:17:14.263Z,18.00
2019-05-05T10:19:47.425Z,7.00
2019-05-05T10:22:20.369Z,7.60
2019-05-05T10:24:56.771Z,9.00
2019-05-05T10:27:41.910Z,8.20
2019-05-05T10:30:04.172Z,8.20
2019-05-05T10:32:37.178Z,7.20
2019-05-05T10:35:10.558Z,7.20
2019-05-05T10:37:43.964Z,3.00
2019-05-05T10:40:17.173Z,3.40
2019-05-05T10:42:50.285Z,1.60
2019-05-05T10:45:24.436Z,4.00
2019-05-05T10:47:57.786Z,4.00
2019-05-05T10:50:30.993Z,5.00
2019-05-05T10:53:04.712Z,6.00
2019-05-05T10:55:38.165Z,7.00
2019-05-05T10:58:13.656Z,8.60
2019-05-05T11:00:48.188Z,11.40
2019-05-05T11:03:23.579Z,10.40
2019-05-05T11:05:56.575Z,7.40
2019-05-05T11:08:30.797Z,12.80
2019-05-05T11:11:04.375Z,6.20
2019-05-05T11:13:37.318Z,7.80
2019-05-05T11:16:10.376Z,5.80
2019-05-05T11:18:43.462Z,3.00
2019-05-05T11:21:16.531Z,6.00
2019-05-05T11:23:49.409Z,4.60
2019-05-05T11:26:24.538Z,6.40
2019-05-05T11:28:57.280Z,6.20
2019-05-05T11:31:30.128Z,8.80
2019-05-05T11:34:03.084Z,10.60
2019-05-05T11:36:36.166Z,10.20
2019-05-05T11:39:09.090Z,4.00
2019-05-05T11:41:44.069Z,8.20
2019-05-05T11:44:17.153Z,7.00
2019-05-05T11:46:50.143Z,3.00
2019-05-05T11:49:24.506Z,3.40
2019-05-05T11:51:57.584Z,5.20
2019-05-05T11:54:30.473Z,8.20
2019-05-05T11:57:04.368Z,6.80
2019-05-05T11:59:37.678Z,7.40
2019-05-05T12:02:10.617Z,4.80
2019-05-05T12:04:43.502Z,5.20
2019-05-05T12:07:16.334Z,4.60
2019-05-05T12:09:49.176Z,6.00
2019-05-05T12:12:22.001Z,6.40
2019-05-05T12:14:54.842Z,6.80
2019-05-05T12:17:27.700Z,4.80
2019-05-05T12:20:00.765Z,5.20
2019-05-05T12:22:34.096Z,7.60
2019-05-05T12:25:07.505Z,6.40
2019-05-05T12:27:40.626Z,6.00
2019-05-05T12:30:14.241Z,4.00
2019-05-05T12:32:47.225Z,6.40
2019-05-05T12:35:20.069Z,5.40
2019-05-05T12:37:53.816Z,4.80
2019-05-05T12:40:26.950Z,6.00
2019-05-05T12:43:00.029Z,5.60
2019-05-05T12:45:34.485Z,3.80
2019-05-05T12:48:07.489Z,3.00
2019-05-05T12:50:40.422Z,2.00
2019-05-05T12:53:14.548Z,8.40
2019-05-05T12:55:48.156Z,5.60
2019-05-05T12:58:20.991Z,4.80
2019-05-05T13:00:54.121Z,2.00
2019-05-05T13:03:27.006Z,4.20
2019-05-05T13:05:59.944Z,2.60
2019-05-05T13:08:34.085Z,2.40
2019-05-05T13:11:08.461Z,3.00
2019-05-05T13:13:43.815Z,3.80
2019-05-05T13:16:16.786Z,5.00
2019-05-05T13:18:50.132Z,4.00
2019-05-05T13:21:23.987Z,4.00
2019-05-05T13:23:57.039Z,23.80
2019-05-05T13:26:30.177Z,35.75
2019-05-05T13:29:03.380Z,9.60
2019-05-05T13:31:36.925Z,14.80
2019-05-05T13:34:09.915Z,13.40
2019-05-05T13:36:44.099Z,16.00
2019-05-05T13:39:17.451Z,11.00
2019-05-05T13:41:50.617Z,25.20
2019-05-05T13:44:24.323Z,4.20
2019-05-05T13:46:57.152Z,2.00
2019-05-05T13:49:30.482Z,3.60
2019-05-05T13:52:04.695Z,4.40
2019-05-05T13:54:38.195Z,4.00
2019-05-05T13:57:11.095Z,2.60
2019-05-05T13:59:44.692Z,5.00
2019-05-05T14:02:17.712Z,3.80
2019-05-05T14:04:50.584Z,4.20
2019-05-05T14:07:24.072Z,4.80
2019-05-05T14:09:59.028Z,5.00
2019-05-05T14:12:34.395Z,4.80
2019-05-05T14:15:10.354Z,4.00
2019-05-05T14:17:44.009Z,3.60
2019-05-05T14:20:17.563Z,10.60
2019-05-05T14:22:51.296Z,3.60
2019-05-05T14:25:24.420Z,5.00
2019-05-05T14:27:57.427Z,4.20
2019-05-05T14:30:30.615Z,3.00
2019-05-05T14:33:03.928Z,3.00
2019-05-05T14:35:36.920Z,3.80
2019-05-05T14:38:09.888Z,4.80
2019-05-05T14:40:44.576Z,3.60
2019-05-05T14:43:17.769Z,25.40
2019-05-05T14:45:51.372Z,11.20
2019-05-05T14:48:24.368Z,10.20
2019-05-05T14:50:57.383Z,10.00
2019-05-05T14:53:30.568Z,7.00
2019-05-05T14:56:04.633Z,4.00
2019-05-05T14:58:37.692Z,3.80
2019-05-05T15:01:11.023Z,3.20
2019-05-05T15:03:44.463Z,3.60
2019-05-05T15:06:17.992Z,4.00
2019-05-05T15:08:51.186Z,4.80
2019-05-05T15:11:24.193Z,4.40
2019-05-05T15:13:57.271Z,5.00
2019-05-05T15:16:30.344Z,4.60
2019-05-05T15:19:03.911Z,5.80
2019-05-05T15:21:37.137Z,4.20
2019-05-05T15:24:10.112Z,13.80
2019-05-05T15:26:51.197Z,12.20
2019-05-05T15:29:17.614Z,13.00
2019-05-05T15:31:51.415Z,12.80
2019-05-05T15:34:24.820Z,12.20
2019-05-05T15:36:57.757Z,13.60
2019-05-05T15:39:30.858Z,12.80
2019-05-05T15:42:04.619Z,29.40
2019-05-05T15:44:38.065Z,2.80
2019-05-05T15:47:11.161Z,3.00
2019-05-05T15:49:44.215Z,3.60
2019-05-05T15:52:20.019Z,13.60
2019-05-05T15:54:53.848Z,17.40
2019-05-05T15:57:26.770Z,3.00
2019-05-05T15:59:59.767Z,3.80
2019-05-05T16:02:35.844Z,4.00
2019-05-05T16:05:08.434Z,4.40
2019-05-05T16:07:43.814Z,3.00
2019-05-05T16:10:17.967Z,4.40
2019-05-05T16:12:51.312Z,2.80
2019-05-05T16:15:24.502Z,5.20
2019-05-05T16:17:57.502Z,5.00
2019-05-05T16:20:30.391Z,6.20
2019-05-05T16:23:03.613Z,4.60
2019-05-05T16:25:37.275Z,6.00
2019-05-05T16:28:10.189Z,5.80
2019-05-05T16:30:44.542Z,3.80
2019-05-05T16:33:17.680Z,3.80
2019-05-05T16:35:50.774Z,4.00
2019-05-05T16:38:24.098Z,5.20
2019-05-05T16:40:57.514Z,4.00
2019-05-05T16:43:30.764Z,5.40
2019-05-05T16:46:04.237Z,3.40
2019-05-05T16:48:37.418Z,5.20
2019-05-05T16:51:10.401Z,3.60
2019-05-05T16:53:43.492Z,3.00
2019-05-05T16:56:16.373Z,4.00
2019-05-05T16:58:49.322Z,4.00
2019-05-05T17:01:22.456Z,4.60
2019-05-05T17:04:07.702Z,3.00
2019-05-05T17:06:30.502Z,4.20
2019-05-05T17:09:06.966Z,5.60
2019-05-05T17:11:40.277Z,5.00
2019-05-05T17:14:13.287Z,6.00
2019-05-05T17:16:46.418Z,5.40
2019-05-05T17:19:19.838Z,4.20
2019-05-05T17:21:53.633Z,6.00
2019-05-05T17:24:26.623Z,5.00
2019-05-05T17:26:59.568Z,5.60
2019-05-05T17:29:34.374Z,4.80
2019-05-05T17:32:07.254Z,4.40
2019-05-05T17:34:40.454Z,4.20
2019-05-05T17:37:13.532Z,4.20
2019-05-05T17:39:46.725Z,4.20
2019-05-05T17:42:19.780Z,5.80
2019-05-05T17:44:52.786Z,4.00
2019-05-05T17:47:26.376Z,4.20
2019-05-05T17:49:59.275Z,6.00
2019-05-05T17:52:34.243Z,5.00
2019-05-05T17:55:07.287Z,4.40
2019-05-05T17:57:40.296Z,4.20
2019-05-05T18:00:14.775Z,4.00
2019-05-05T18:02:47.934Z,3.20
2019-05-05T18:05:20.951Z,4.60
2019-05-05T18:07:53.854Z,3.20
2019-05-05T18:10:26.911Z,4.40
2019-05-05T18:12:59.965Z,4.40
2019-05-05T18:15:34.109Z,3.60
2019-05-05T18:18:07.300Z,3.60
2019-05-05T18:20:40.217Z,4.00
2019-05-05T18:23:13.863Z,4.60
2019-05-05T18:25:46.932Z,3.40
2019-05-05T18:28:20.325Z,4.00
2019-05-05T18:30:53.981Z,10.40
2019-05-05T18:33:27.112Z,3.60
2019-05-05T18:36:00.065Z,8.40
2019-05-05T18:38:33.694Z,8.40
2019-05-05T18:41:06.815Z,24.50
2019-05-05T18:43:39.800Z,17.75
2019-05-05T18:46:13.672Z,13.20
2019-05-05T18:48:46.709Z,18.00
2019-05-05T18:51:19.723Z,20.25
2019-05-05T18:53:54.903Z,4.80
2019-05-05T18:56:27.591Z,4.00
2019-05-05T18:59:00.588Z,10.60
2019-05-05T19:01:33.798Z,13.60
2019-05-05T19:04:06.887Z,10.80
2019-05-05T19:06:40.362Z,4.20
2019-05-05T19:09:13.744Z,4.20
2019-05-05T19:11:46.757Z,3.80
2019-05-05T19:14:19.769Z,4.00
2019-05-05T19:16:55.258Z,3.80
2019-05-05T19:19:27.575Z,4.20
2019-05-05T19:22:00.581Z,5.00
2019-05-05T19:24:35.377Z,3.60
2019-05-05T19:27:08.677Z,3.60
2019-05-05T19:29:41.678Z,4.80
2019-05-05T19:32:14.765Z,3.60
2019-05-05T19:34:47.696Z,4.20
2019-05-05T19:37:20.812Z,3.80
2019-05-05T19:39:53.651Z,4.20
2019-05-05T19:42:26.686Z,4.20
2019-05-05T19:44:59.554Z,5.00
2019-05-05T19:47:34.054Z,6.00
2019-05-05T19:50:07.711Z,5.75
2019-05-05T19:52:40.786Z,5.80
2019-05-05T19:55:13.904Z,5.60
2019-05-05T19:57:47.144Z,6.40
2019-05-05T20:00:20.301Z,5.25
2019-05-05T20:03:03.961Z,6.50
2019-05-05T20:05:28.147Z,8.00
2019-05-05T20:08:00.995Z,5.75
2019-05-05T20:10:34.115Z,5.25
2019-05-05T20:13:07.137Z,5.25
2019-05-05T20:15:40.147Z,4.75
2019-05-05T20:18:14.180Z,4.75
2019-05-05T20:21:00.656Z,5.50
2019-05-05T20:23:24.271Z,5.00
2019-05-05T20:25:56.931Z,4.00
2019-05-05T20:28:29.776Z,5.00
2019-05-05T20:31:03.612Z,4.00
2019-05-05T20:33:36.730Z,6.25
2019-05-05T20:36:09.678Z,3.50
2019-05-05T20:38:44.017Z,6.25
2019-05-05T20:41:17.498Z,3.75
2019-05-05T20:43:50.584Z,4.75
2019-05-05T20:46:23.824Z,6.00
2019-05-05T20:48:56.884Z,5.75
2019-05-05T20:51:31.058Z,7.75
2019-05-05T20:54:04.995Z,5.00
2019-05-05T20:56:38.070Z,8.50
2019-05-05T20:59:23.801Z,4.75
2019-05-05T21:01:45.870Z,4.25
2019-05-05T21:04:19.572Z,8.25
2019-05-05T21:06:52.501Z,6.00
2019-05-05T21:09:25.819Z,6.00
2019-05-05T21:11:59.036Z,6.25
2019-05-05T21:14:37.228Z,6.00
2019-05-05T21:17:06.687Z,6.00
2019-05-05T21:19:39.576Z,7.00
2019-05-05T21:22:13.489Z,6.00
2019-05-05T21:24:45.579Z,5.25
2019-05-05T21:27:17.421Z,5.00
2019-05-05T21:29:49.272Z,4.75
2019-05-05T21:32:21.250Z,8.00
2019-05-05T21:34:53.155Z,5.75
2019-05-05T21:37:25.036Z,5.50
2019-05-05T21:39:56.958Z,5.50
2019-05-05T21:42:28.790Z,6.00
2019-05-05T21:45:00.648Z,7.00
2019-05-05T21:47:34.450Z,6.50
2019-05-05T21:50:06.138Z,4.00
2019-05-05T21:52:38.006Z,5.25
2019-05-05T21:55:09.950Z,8.25
2019-05-05T21:57:43.976Z,4.25
2019-05-05T22:00:16.047Z,5.50
2019-05-05T22:02:47.884Z,3.00
2019-05-05T22:05:19.736Z,2.50
2019-05-05T22:07:51.575Z,10.50
2019-05-05T22:10:24.521Z,11.00
2019-05-05T22:12:56.587Z,10.50
2019-05-05T22:15:28.513Z,10.00
2019-05-05T22:18:00.358Z,29.75
2019-05-05T22:20:33.946Z,29.25
2019-05-05T22:23:05.797Z,34.25
2019-05-05T22:25:37.662Z,34.50
2019-05-05T22:28:09.547Z,34.75
2019-05-05T22:30:43.591Z,19.00
2019-05-05T22:33:14.989Z,8.25
2019-05-05T22:35:46.971Z,6.00
2019-05-05T22:38:18.817Z,7.00
2019-05-05T22:40:50.650Z,3.50
2019-05-05T22:43:23.914Z,3.25
2019-05-05T22:45:56.132Z,4.25
2019-05-05T22:48:28.218Z,4.00
2019-05-05T22:51:00.072Z,7.25
2019-05-05T22:53:31.907Z,14.75
2019-05-05T22:56:04.127Z,15.50
2019-05-05T22:58:36.075Z,18.00
2019-05-05T23:01:08.028Z,22.25
2019-05-05T23:03:39.874Z,22.25
2019-05-05T23:06:13.678Z,26.00
2019-05-05T23:08:45.349Z,27.25
2019-05-05T23:11:17.554Z,23.00
2019-05-05T23:13:49.406Z,27.75
2019-05-05T23:16:21.362Z,28.50
2019-05-05T23:18:54.731Z,29.25
2019-05-05T23:21:26.959Z,32.25
2019-05-05T23:23:59.057Z,33.75
2019-05-05T23:26:30.955Z,31.50
2019-05-05T23:29:03.140Z,22.25
2019-05-05T23:31:34.986Z,12.00
2019-05-05T23:34:06.915Z,12.50
2019-05-05T23:36:38.758Z,10.50
2019-05-05T23:39:10.606Z,5.25
2019-05-05T23:41:42.547Z,4.75
2019-05-05T23:44:14.456Z,3.75
2019-05-05T23:46:46.336Z,5.25
2019-05-05T23:49:18.182Z,5.00
2019-05-05T23:51:50.026Z,6.25
2019-05-05T23:54:21.894Z,9.00
2019-05-05T23:56:53.912Z,7.75
2019-05-05T23:59:25.988Z,9.75
